createdAt,value
2018-11-05T00:01:48.480Z,39.10
2018-11-05T00:04:16.915Z,38.23
2018-11-05T00:06:46.067Z,37.87
2018-11-05T00:09:14.497Z,37.23
2018-11-05T00:11:43.246Z,38.10
2018-11-05T00:14:11.741Z,37.67
2018-11-05T00:16:41.444Z,36.03
2018-11-05T00:19:10.081Z,38.70
2018-11-05T00:21:38.721Z,38.27
2018-11-05T00:24:07.234Z,38.43
2018-11-05T00:26:36.362Z,37.07
2018-11-05T00:29:04.945Z,38.30
2018-11-05T00:31:34.102Z,36.27
2018-11-05T00:34:03.608Z,39.97
2018-11-05T00:36:32.299Z,39.70
2018-11-05T00:39:00.837Z,40.40
2018-11-05T00:41:29.596Z,39.80
2018-11-05T00:43:58.379Z,38.17
2018-11-05T00:46:26.894Z,40.27
2018-11-05T00:48:55.662Z,40.80
2018-11-05T00:51:24.447Z,39.77
2018-11-05T00:53:52.873Z,41.07
2018-11-05T00:56:21.573Z,39.80
2018-11-05T00:58:50.013Z,40.13
2018-11-05T01:01:18.584Z,39.97
2018-11-05T01:03:47.101Z,37.50
2018-11-05T01:06:15.610Z,39.77
2018-11-05T01:08:44.478Z,39.27
2018-11-05T01:11:13.177Z,39.60
2018-11-05T01:13:42.197Z,38.93
2018-11-05T01:16:10.723Z,37.97
2018-11-05T01:18:40.020Z,39.30
2018-11-05T01:21:08.944Z,39.83
2018-11-05T01:23:37.611Z,39.57
2018-11-05T01:26:06.322Z,40.53
2018-11-05T01:28:36.197Z,39.93
2018-11-05T01:31:04.706Z,40.33
2018-11-05T01:33:33.635Z,39.70
2018-11-05T01:36:02.154Z,39.37
2018-11-05T01:38:30.871Z,40.70
2018-11-05T01:40:59.445Z,41.57
2018-11-05T01:43:27.956Z,39.00
2018-11-05T01:45:56.631Z,41.07
2018-11-05T01:48:25.761Z,40.43
2018-11-05T01:50:54.369Z,39.87
2018-11-05T01:53:22.839Z,41.60
2018-11-05T01:55:51.451Z,40.63
2018-11-05T01:58:21.028Z,41.17
2018-11-05T02:00:49.662Z,42.17
2018-11-05T02:03:18.511Z,41.67
2018-11-05T02:05:47.186Z,40.87
2018-11-05T02:08:16.722Z,41.03
2018-11-05T02:10:45.406Z,42.77
2018-11-05T02:13:14.172Z,39.67
2018-11-05T02:15:42.943Z,43.13
2018-11-05T02:18:13.082Z,41.93
2018-11-05T02:20:41.654Z,44.47
2018-11-05T02:23:10.904Z,45.73
2018-11-05T02:25:39.448Z,46.47
2018-11-05T02:28:08.215Z,49.87
2018-11-05T02:30:36.863Z,51.47
2018-11-05T02:33:05.735Z,49.93
2018-11-05T02:35:34.330Z,48.70
2018-11-05T02:38:03.130Z,49.90
2018-11-05T02:40:31.739Z,50.40
2018-11-05T02:43:00.363Z,52.03
2018-11-05T02:45:29.993Z,48.80
2018-11-05T02:47:58.566Z,53.07
2018-11-05T02:50:27.287Z,52.23
2018-11-05T02:52:55.926Z,51.30
2018-11-05T02:55:25.551Z,50.80
2018-11-05T02:57:54.034Z,51.43
2018-11-05T03:00:23.313Z,50.90
2018-11-05T03:02:52.153Z,50.37
2018-11-05T03:05:20.954Z,49.20
2018-11-05T03:07:50.346Z,48.47
2018-11-05T03:10:18.883Z,47.83
2018-11-05T03:12:48.382Z,46.50
2018-11-05T03:15:18.323Z,46.03
2018-11-05T03:17:47.334Z,45.07
2018-11-05T03:20:17.043Z,45.47
2018-11-05T03:22:45.782Z,45.97
2018-11-05T03:25:14.378Z,46.70
2018-11-05T03:27:42.975Z,45.73
2018-11-05T03:30:13.282Z,43.83
2018-11-05T03:32:41.854Z,43.60
2018-11-05T03:35:12.634Z,42.37
2018-11-05T03:37:42.055Z,43.90
2018-11-05T03:40:11.450Z,42.17
2018-11-05T03:42:41.184Z,41.50
2018-11-05T03:45:12.360Z,40.93
2018-11-05T03:47:40.937Z,43.57
2018-11-05T03:50:13.732Z,44.17
2018-11-05T03:52:42.529Z,44.30
2018-11-05T03:55:11.093Z,42.97
2018-11-05T03:57:39.549Z,44.03
2018-11-05T04:00:10.822Z,44.83
2018-11-05T04:02:39.413Z,44.93
2018-11-05T04:05:08.149Z,45.63
2018-11-05T04:07:37.089Z,45.33
2018-11-05T04:10:07.167Z,45.87
2018-11-05T04:12:36.714Z,46.67
2018-11-05T04:15:05.398Z,46.27
2018-11-05T04:17:34.033Z,46.57
2018-11-05T04:20:02.723Z,46.50
2018-11-05T04:22:31.283Z,50.93
2018-11-05T04:24:59.792Z,50.30
2018-11-05T04:27:29.009Z,50.53
2018-11-05T04:29:58.486Z,53.60
2018-11-05T04:32:26.977Z,52.30
2018-11-05T04:34:55.427Z,52.07
2018-11-05T04:37:23.938Z,50.83
2018-11-05T04:39:52.389Z,53.00
2018-11-05T04:42:21.162Z,50.60
2018-11-05T04:44:49.592Z,51.23
2018-11-05T04:47:18.200Z,50.90
2018-11-05T04:49:46.794Z,51.57
2018-11-05T04:52:15.273Z,50.80
2018-11-05T04:54:44.477Z,46.57
2018-11-05T04:57:12.936Z,48.27
2018-11-05T04:59:41.436Z,47.43
2018-11-05T05:02:10.480Z,44.93
2018-11-05T05:04:38.987Z,46.00
2018-11-05T05:07:07.908Z,48.13
2018-11-05T05:09:36.407Z,45.33
2018-11-05T05:12:05.117Z,48.23
2018-11-05T05:14:33.677Z,47.13
2018-11-05T05:17:03.197Z,46.77
2018-11-05T05:19:32.129Z,46.40
2018-11-05T05:22:01.683Z,49.63
2018-11-05T05:24:30.229Z,49.07
2018-11-05T05:26:58.763Z,49.30
2018-11-05T05:29:28.496Z,49.43
2018-11-05T05:31:57.801Z,49.80
2018-11-05T05:34:26.318Z,49.53
2018-11-05T05:36:54.925Z,50.83
2018-11-05T05:39:24.491Z,51.73
2018-11-05T05:41:53.195Z,50.20
2018-11-05T05:44:21.750Z,52.80
2018-11-05T05:46:50.261Z,49.37
2018-11-05T05:49:18.685Z,48.77
2018-11-05T05:51:47.274Z,50.67
2018-11-05T05:54:15.867Z,48.60
2018-11-05T05:56:44.398Z,49.00
2018-11-05T05:59:13.029Z,49.80
2018-11-05T06:01:41.653Z,47.93
2018-11-05T06:04:10.279Z,48.30
2018-11-05T06:06:38.930Z,46.90
2018-11-05T06:09:09.325Z,47.17
2018-11-05T06:11:38.291Z,47.33
2018-11-05T06:14:07.217Z,47.03
2018-11-05T06:16:36.559Z,49.23
2018-11-05T06:19:05.255Z,47.53
2018-11-05T06:21:33.946Z,49.90
2018-11-05T06:24:02.822Z,50.63
2018-11-05T06:26:31.353Z,50.77
2018-11-05T06:28:59.922Z,49.70
2018-11-05T06:31:28.594Z,51.60
2018-11-05T06:33:57.148Z,53.07
2018-11-05T06:36:25.616Z,50.77
2018-11-05T06:38:54.289Z,54.40
2018-11-05T06:41:22.805Z,51.73
2018-11-05T06:43:51.585Z,51.13
2018-11-05T06:46:20.172Z,51.67
2018-11-05T06:48:48.845Z,51.13
2018-11-05T06:51:18.332Z,51.10
2018-11-05T06:53:47.091Z,51.57
2018-11-05T06:56:15.831Z,48.40
2018-11-05T06:58:44.322Z,49.77
2018-11-05T07:01:12.811Z,49.27
2018-11-05T07:03:41.394Z,49.40
2018-11-05T07:06:10.247Z,47.43
2018-11-05T07:08:38.840Z,45.73
2018-11-05T07:11:07.331Z,47.20
2018-11-05T07:13:35.949Z,45.47
2018-11-05T07:16:04.601Z,46.77
2018-11-05T07:18:34.569Z,46.10
2018-11-05T07:21:02.949Z,45.13
2018-11-05T07:23:31.693Z,42.70
2018-11-05T07:26:00.415Z,44.97
2018-11-05T07:28:28.958Z,43.80
2018-11-05T07:30:57.595Z,43.00
2018-11-05T07:33:27.440Z,43.47
2018-11-05T07:35:56.030Z,42.27
2018-11-05T07:38:24.737Z,41.70
2018-11-05T07:40:53.453Z,42.53
2018-11-05T07:43:22.006Z,42.20
2018-11-05T07:45:50.598Z,42.67
2018-11-05T07:48:19.261Z,39.83
2018-11-05T07:50:47.820Z,41.37
2018-11-05T07:53:16.593Z,40.37
2018-11-05T07:55:45.022Z,40.13
2018-11-05T07:58:13.696Z,38.70
2018-11-05T08:00:47.485Z,38.05
2018-11-05T08:03:17.083Z,38.13
2018-11-05T08:05:45.727Z,36.73
2018-11-05T08:08:15.273Z,35.50
2018-11-05T08:10:43.711Z,37.53
2018-11-05T08:13:12.334Z,35.93
2018-11-05T08:15:41.000Z,36.43
2018-11-05T08:18:09.640Z,34.63
2018-11-05T08:20:38.322Z,33.87
2018-11-05T08:23:07.109Z,34.33
2018-11-05T08:25:35.652Z,34.23
2018-11-05T08:28:04.323Z,32.80
2018-11-05T08:30:32.819Z,32.87
2018-11-05T08:33:01.466Z,32.47
2018-11-05T08:35:30.079Z,31.10
2018-11-05T08:37:58.750Z,32.90
2018-11-05T08:40:27.819Z,31.10
2018-11-05T08:42:57.199Z,30.13
2018-11-05T08:45:28.341Z,31.37
2018-11-05T08:47:56.928Z,29.33
2018-11-05T08:50:26.027Z,28.23
2018-11-05T08:52:54.553Z,27.90
2018-11-05T08:55:25.075Z,27.60
2018-11-05T08:57:53.570Z,24.67
2018-11-05T09:00:27.608Z,25.23
2018-11-05T09:02:56.420Z,26.40
2018-11-05T09:05:25.162Z,24.20
2018-11-05T09:07:54.742Z,23.97
2018-11-05T09:10:24.851Z,24.47
2018-11-05T09:12:53.461Z,23.93
2018-11-05T09:15:22.789Z,23.63
2018-11-05T09:17:51.598Z,21.77
2018-11-05T09:20:20.543Z,21.63
2018-11-05T09:22:50.077Z,22.73
2018-11-05T09:25:18.816Z,22.83
2018-11-05T09:27:47.423Z,22.50
2018-11-05T09:30:17.346Z,21.67
2018-11-05T09:32:46.349Z,20.67
2018-11-05T09:35:15.121Z,20.20
2018-11-05T09:37:43.737Z,19.20
2018-11-05T09:40:14.923Z,17.67
2018-11-05T09:42:44.401Z,16.63
2018-11-05T09:45:15.293Z,17.70
2018-11-05T09:47:44.607Z,17.97
2018-11-05T09:50:14.515Z,16.97
2018-11-05T09:52:43.177Z,16.57
2018-11-05T09:55:13.030Z,16.83
2018-11-05T09:57:41.866Z,17.20
2018-11-05T10:00:17.723Z,16.80
2018-11-05T10:02:52.638Z,17.10
2018-11-05T10:05:21.345Z,16.53
2018-11-05T10:07:49.798Z,17.00
2018-11-05T10:10:18.769Z,16.57
2018-11-05T10:12:47.506Z,16.63
2018-11-05T10:15:17.121Z,16.93
2018-11-05T10:17:46.012Z,16.40
2018-11-05T10:20:19.501Z,16.40
2018-11-05T10:22:48.212Z,17.37
2018-11-05T10:25:17.143Z,16.83
2018-11-05T10:27:47.280Z,17.87
2018-11-05T10:30:21.914Z,18.03
2018-11-05T10:32:50.529Z,16.83
2018-11-05T10:35:19.425Z,16.00
2018-11-05T10:37:48.435Z,16.17
2018-11-05T10:40:18.959Z,16.63
2018-11-05T10:42:49.559Z,16.90
2018-11-05T10:45:18.905Z,16.23
2018-11-05T10:47:47.461Z,16.37
2018-11-05T10:50:17.088Z,16.20
2018-11-05T10:52:47.040Z,16.23
2018-11-05T10:55:16.691Z,17.27
2018-11-05T10:57:45.482Z,17.37
2018-11-05T11:00:22.484Z,17.60
2018-11-05T11:02:56.518Z,16.57
2018-11-05T11:05:26.205Z,16.80
2018-11-05T11:07:55.973Z,17.03
2018-11-05T11:10:25.519Z,17.17
2018-11-05T11:12:54.066Z,17.07
2018-11-05T11:15:23.118Z,16.50
2018-11-05T11:17:51.772Z,16.67
2018-11-05T11:20:20.356Z,16.17
2018-11-05T11:22:49.043Z,17.37
2018-11-05T11:25:17.505Z,17.83
2018-11-05T11:27:46.490Z,17.53
2018-11-05T11:30:15.826Z,17.60
2018-11-05T11:32:44.877Z,17.60
2018-11-05T11:35:13.862Z,16.57
2018-11-05T11:37:42.463Z,17.70
2018-11-05T11:40:13.425Z,16.85
2018-11-05T11:42:42.746Z,17.90
2018-11-05T11:45:12.464Z,16.73
2018-11-05T11:47:41.590Z,16.60
2018-11-05T11:50:12.307Z,17.17
2018-11-05T11:52:41.024Z,17.43
2018-11-05T11:55:12.597Z,17.30
2018-11-05T11:57:41.355Z,17.37
2018-11-05T12:00:13.870Z,17.60
2018-11-05T12:02:42.379Z,18.00
2018-11-05T12:05:11.200Z,17.60
2018-11-05T12:07:39.642Z,17.90
2018-11-05T12:10:10.585Z,16.97
2018-11-05T12:12:39.185Z,17.50
2018-11-05T12:15:08.630Z,17.20
2018-11-05T12:17:37.583Z,17.90
2018-11-05T12:20:07.946Z,16.20
2018-11-05T12:22:36.502Z,16.63
2018-11-05T12:25:06.579Z,17.20
2018-11-05T12:27:35.145Z,17.50
2018-11-05T12:30:03.849Z,16.57
2018-11-05T12:32:32.367Z,16.73
2018-11-05T12:35:00.970Z,16.50
2018-11-05T12:37:29.563Z,16.30
2018-11-05T12:39:58.232Z,16.13
2018-11-05T12:42:27.253Z,16.03
2018-11-05T12:44:56.347Z,16.37
2018-11-05T12:47:25.089Z,15.87
2018-11-05T12:49:54.144Z,15.37
2018-11-05T12:52:23.022Z,15.40
2018-11-05T12:54:51.583Z,15.63
2018-11-05T12:57:20.762Z,15.10
2018-11-05T13:34:10.837Z,11.50
2018-11-05T13:36:39.628Z,12.07
2018-11-05T13:42:12.950Z,11.33
2018-11-05T13:44:41.433Z,11.20
2018-11-05T13:52:11.324Z,10.88
2018-11-05T13:54:40.863Z,11.90
2018-11-05T13:57:10.375Z,11.85
2018-11-05T13:59:41.264Z,11.90
2018-11-05T14:02:11.271Z,12.80
2018-11-05T14:04:41.719Z,13.30
2018-11-05T14:07:12.013Z,14.87
2018-11-05T14:09:41.975Z,15.87
2018-11-05T14:12:12.274Z,16.70
2018-11-05T14:14:42.311Z,17.63
2018-11-05T14:17:12.291Z,17.57
2018-11-05T14:19:42.113Z,15.77
2018-11-05T14:22:12.337Z,16.50
2018-11-05T14:24:41.986Z,15.37
2018-11-05T14:27:11.784Z,14.60
2018-11-05T14:29:42.073Z,15.70
2018-11-05T14:32:11.292Z,14.80
2018-11-05T14:34:40.772Z,13.97
2018-11-05T14:37:10.430Z,13.57
2018-11-05T14:40:14.503Z,14.10
2018-11-05T14:42:44.261Z,13.20
2018-11-05T14:45:16.006Z,14.37
2018-11-05T14:47:47.048Z,13.23
2018-11-05T14:50:18.334Z,12.90
2018-11-05T14:52:47.894Z,13.10
2018-11-05T14:55:18.945Z,12.00
2018-11-05T14:57:49.829Z,10.97
2018-11-05T15:00:21.777Z,10.40
2018-11-05T15:02:51.355Z,10.57
2018-11-05T15:05:20.936Z,10.50
2018-11-05T15:07:50.960Z,10.07
2018-11-05T15:10:22.713Z,10.50
2018-11-05T15:12:52.526Z,10.83
2018-11-05T15:15:22.563Z,10.63
2018-11-05T15:17:52.050Z,10.93
2018-11-05T15:20:22.685Z,10.70
2018-11-05T15:22:52.154Z,10.17
2018-11-05T15:25:22.261Z,13.50
2018-11-05T15:27:51.714Z,28.00
2018-11-05T15:30:22.350Z,32.37
2018-11-05T15:32:51.849Z,21.67
2018-11-05T15:35:21.376Z,21.63
2018-11-05T15:37:50.866Z,18.63
2018-11-05T15:40:21.359Z,19.30
2018-11-05T15:42:50.869Z,14.93
2018-11-05T15:46:50.114Z,11.17
2018-11-05T15:49:19.521Z,10.67
2018-11-05T15:51:49.226Z,10.10
2018-11-05T15:54:18.576Z,10.57
2018-11-05T15:56:47.871Z,10.93
2018-11-05T15:59:17.284Z,11.20
2018-11-05T16:01:46.751Z,10.03
2018-11-05T16:04:16.107Z,10.37
2018-11-05T16:06:46.078Z,10.70
2018-11-05T16:09:15.556Z,10.57
2018-11-05T16:11:45.001Z,11.00
2018-11-05T16:14:14.333Z,11.00
2018-11-05T16:16:43.894Z,10.63
2018-11-05T16:19:13.285Z,10.80
2018-11-05T16:21:42.742Z,13.07
2018-11-05T16:24:12.146Z,12.93
2018-11-05T16:26:41.679Z,11.73
2018-11-05T16:29:11.168Z,10.83
2018-11-05T16:31:40.688Z,9.50
2018-11-05T16:34:17.776Z,10.80
2018-11-05T16:36:47.162Z,11.73
2018-11-05T16:39:16.566Z,10.97
2018-11-05T16:41:45.895Z,10.60
2018-11-05T16:44:15.053Z,10.67
2018-11-05T16:46:44.371Z,10.70
2018-11-05T16:49:13.790Z,11.00
2018-11-05T16:51:43.294Z,11.20
2018-11-05T16:54:12.580Z,11.87
2018-11-05T16:56:41.901Z,12.30
2018-11-05T16:59:11.062Z,13.23
2018-11-05T17:01:40.838Z,13.43
2018-11-05T17:04:09.898Z,14.07
2018-11-05T17:06:39.136Z,14.03
2018-11-05T17:09:09.695Z,14.77
2018-11-05T17:11:39.013Z,14.73
2018-11-05T17:14:09.370Z,15.40
2018-11-05T17:16:38.666Z,15.43
2018-11-05T17:19:08.200Z,14.93
2018-11-05T17:21:37.463Z,13.87
2018-11-05T17:24:06.760Z,14.20
2018-11-05T17:26:36.116Z,12.70
2018-11-05T17:29:05.567Z,12.23
2018-11-05T17:31:34.967Z,11.70
2018-11-05T17:34:04.611Z,11.70
2018-11-05T17:36:33.932Z,12.43
2018-11-05T17:39:04.151Z,12.27
2018-11-05T17:41:33.558Z,12.63
2018-11-05T17:44:02.714Z,13.50
2018-11-05T17:46:32.954Z,13.50
2018-11-05T17:49:02.244Z,13.73
2018-11-05T17:51:33.052Z,12.80
2018-11-05T17:54:02.687Z,12.43
2018-11-05T17:56:32.140Z,13.70
2018-11-05T17:59:04.497Z,13.17
2018-11-05T18:01:34.066Z,13.43
2018-11-05T18:04:03.490Z,13.07
2018-11-05T18:06:33.074Z,14.67
2018-11-05T18:09:02.493Z,14.73
2018-11-05T18:11:32.024Z,15.20
2018-11-05T18:14:01.322Z,16.07
2018-11-05T18:16:31.593Z,16.83
2018-11-05T18:19:01.157Z,16.73
2018-11-05T18:21:31.694Z,17.20
2018-11-05T18:24:01.170Z,17.27
2018-11-05T18:26:30.391Z,17.73
2018-11-05T18:28:59.577Z,17.93
2018-11-05T18:31:28.942Z,18.50
2018-11-05T18:33:58.396Z,19.03
2018-11-05T18:36:27.561Z,19.27
2018-11-05T18:38:56.796Z,18.10
2018-11-05T18:41:32.135Z,19.30
2018-11-05T18:44:01.527Z,19.27
2018-11-05T18:46:30.910Z,19.17
2018-11-05T18:49:00.260Z,18.60
2018-11-05T18:51:29.727Z,18.23
2018-11-05T18:53:59.942Z,19.77
2018-11-05T18:56:29.222Z,20.70
2018-11-05T18:58:58.555Z,21.60
2018-11-05T19:01:27.761Z,22.27
2018-11-05T19:03:56.784Z,22.57
2018-11-05T19:06:25.564Z,22.27
2018-11-05T19:08:55.098Z,21.37
2018-11-05T19:11:24.749Z,20.93
2018-11-05T19:13:53.781Z,19.93
2018-11-05T19:16:22.373Z,19.07
2018-11-05T19:18:51.282Z,19.20
2018-11-05T19:21:19.949Z,21.10
2018-11-05T19:23:51.083Z,19.97
2018-11-05T19:26:19.442Z,20.23
2018-11-05T19:28:48.102Z,20.67
2018-11-05T19:31:16.656Z,20.30
2018-11-05T19:33:45.443Z,20.40
2018-11-05T19:36:14.780Z,20.50
2018-11-05T19:38:43.430Z,19.77
2018-11-05T19:41:11.981Z,20.27
2018-11-05T19:43:40.733Z,20.00
2018-11-05T19:46:09.249Z,18.73
2018-11-05T19:48:37.778Z,18.30
2018-11-05T19:51:06.594Z,17.67
2018-11-05T19:53:35.579Z,18.17
2018-11-05T19:56:04.242Z,19.00
2018-11-05T19:58:32.799Z,19.63
2018-11-05T20:01:01.403Z,18.87
2018-11-05T20:03:29.967Z,17.53
2018-11-05T20:05:58.588Z,16.63
2018-11-05T20:08:27.048Z,16.33
2018-11-05T20:10:55.561Z,15.60
2018-11-05T20:13:24.225Z,17.03
2018-11-05T20:15:52.868Z,15.53
2018-11-05T20:18:21.448Z,15.40
2018-11-05T20:20:50.121Z,15.87
2018-11-05T20:23:18.723Z,14.93
2018-11-05T20:25:47.371Z,15.00
2018-11-05T20:28:15.885Z,15.80
2018-11-05T20:30:44.550Z,16.33
2018-11-05T20:33:13.198Z,15.33
2018-11-05T20:35:41.892Z,15.70
2018-11-05T20:38:10.658Z,14.50
2018-11-05T20:40:39.436Z,15.03
2018-11-05T20:43:07.914Z,14.50
2018-11-05T20:45:36.589Z,14.77
2018-11-05T20:48:05.461Z,14.37
2018-11-05T20:50:34.237Z,14.07
2018-11-05T20:53:02.694Z,13.83
2018-11-05T20:55:31.484Z,13.27
2018-11-05T20:58:00.143Z,13.27
2018-11-05T21:00:28.735Z,12.57
2018-11-05T21:02:57.429Z,13.23
2018-11-05T21:05:26.211Z,12.90
2018-11-05T21:07:54.994Z,13.20
2018-11-05T21:10:25.028Z,13.93
2018-11-05T21:12:53.762Z,14.97
2018-11-05T21:15:23.096Z,13.13
2018-11-05T21:17:52.824Z,14.57
2018-11-05T21:20:21.651Z,14.03
2018-11-05T21:22:51.427Z,12.30
2018-11-05T21:25:20.100Z,12.20
2018-11-05T21:27:48.684Z,11.57
2018-11-05T21:30:18.702Z,12.55
2018-11-05T21:32:47.769Z,12.87
2018-11-05T21:35:17.661Z,12.17
2018-11-05T21:37:47.364Z,11.77
2018-11-05T21:40:16.787Z,12.20
2018-11-05T21:42:45.538Z,12.47
2018-11-05T21:52:02.696Z,11.95
2018-11-05T21:54:31.590Z,11.83
2018-11-05T21:57:00.181Z,12.40
2018-11-05T21:59:28.922Z,13.10
2018-11-05T22:01:57.414Z,13.13
2018-11-05T22:04:26.039Z,13.10
2018-11-05T22:06:54.684Z,13.67
2018-11-05T22:09:23.295Z,14.00
2018-11-05T22:11:51.991Z,14.77
2018-11-05T22:14:20.559Z,14.90
2018-11-05T22:16:49.080Z,14.60
2018-11-05T22:19:17.621Z,14.00
2018-11-05T22:21:46.311Z,14.17
2018-11-05T22:24:14.941Z,14.17
2018-11-05T22:26:43.443Z,14.37
2018-11-05T22:29:12.161Z,14.70
2018-11-05T22:31:40.676Z,14.27
2018-11-05T22:34:09.275Z,14.93
2018-11-05T22:36:37.898Z,14.63
2018-11-05T22:39:08.107Z,14.53
2018-11-05T22:41:36.734Z,13.87
2018-11-05T22:44:05.278Z,15.67
2018-11-05T22:46:33.833Z,14.80
2018-11-05T22:49:04.074Z,14.63
2018-11-05T22:51:32.826Z,14.80
2018-11-05T22:54:01.487Z,13.67
2018-11-05T22:56:29.943Z,13.27
2018-11-05T22:58:59.224Z,13.53
2018-11-05T23:01:33.031Z,12.87
2018-11-05T23:04:03.287Z,13.53
2018-11-05T23:06:33.112Z,13.27
2018-11-05T23:09:01.934Z,12.87
2018-11-05T23:11:30.418Z,13.00
2018-11-05T23:13:58.846Z,12.47
2018-11-05T23:16:27.562Z,12.40
2018-11-05T23:18:56.190Z,13.43
2018-11-05T23:21:25.093Z,12.13
2018-11-05T23:23:53.659Z,12.53
2018-11-05T23:26:22.266Z,12.20
2018-11-05T23:28:50.888Z,13.00
2018-11-05T23:31:19.546Z,12.53
2018-11-05T23:33:48.435Z,12.27
2018-11-05T23:36:17.009Z,11.73
2018-11-05T23:38:45.566Z,12.50
2018-11-05T23:41:14.311Z,12.50
2018-11-05T23:43:43.078Z,12.73
2018-11-05T23:46:11.701Z,12.90
2018-11-05T23:48:40.288Z,12.13
2018-11-05T23:51:08.895Z,12.87
2018-11-05T23:53:37.379Z,12.63
2018-11-05T23:56:06.197Z,12.23
2018-11-05T23:58:34.848Z,12.13
